createdAt,value
2022-08-17T00:00:43.569Z,2.50
2022-08-17T00:05:45.996Z,2.30
2022-08-17T00:10:50.162Z,1.57
2022-08-17T00:15:55.802Z,2.00
2022-08-17T00:20:59.633Z,2.33
2022-08-17T00:26:02.147Z,2.57
2022-08-17T00:31:05.681Z,2.55
2022-08-17T00:36:08.475Z,2.10
2022-08-17T00:41:17.764Z,2.13
2022-08-17T00:46:28.594Z,2.73
2022-08-17T00:51:58.669Z,2.55
2022-08-17T00:57:07.775Z,2.25
2022-08-17T01:02:14.102Z,2.63
2022-08-17T01:07:17.066Z,2.45
2022-08-17T01:12:19.541Z,3.00
2022-08-17T01:17:22.107Z,3.20
2022-08-17T01:22:26.101Z,3.08
2022-08-17T01:27:29.972Z,3.35
2022-08-17T01:32:32.926Z,3.10
2022-08-17T01:37:42.489Z,2.97
2022-08-17T01:42:52.500Z,2.85
2022-08-17T01:47:55.602Z,2.90
2022-08-17T01:53:08.586Z,2.20
2022-08-17T01:58:11.347Z,2.92
2022-08-17T02:03:14.341Z,2.08
2022-08-17T02:08:20.419Z,2.30
2022-08-17T02:13:23.401Z,3.28
2022-08-17T02:18:26.133Z,3.45
2022-08-17T02:23:30.813Z,3.53
2022-08-17T02:28:33.561Z,2.97
2022-08-17T02:33:41.709Z,3.00
2022-08-17T02:38:45.912Z,2.63
2022-08-17T02:43:48.440Z,3.15
2022-08-17T02:48:50.978Z,3.15
2022-08-17T02:54:05.276Z,2.93
2022-08-17T02:59:16.435Z,2.90
2022-08-17T03:04:20.311Z,2.80
2022-08-17T03:09:22.951Z,2.53
2022-08-17T03:14:25.929Z,2.78
2022-08-17T03:19:28.925Z,2.40
2022-08-17T03:24:31.523Z,2.10
2022-08-17T03:29:34.107Z,2.80
2022-08-17T03:34:36.678Z,2.70
2022-08-17T03:39:39.820Z,1.87
2022-08-17T03:44:42.494Z,2.65
2022-08-17T03:50:03.649Z,2.88
2022-08-17T03:55:35.797Z,3.00
2022-08-17T04:00:42.484Z,3.38
2022-08-17T04:05:45.167Z,2.80
2022-08-17T04:10:50.294Z,2.73
2022-08-17T04:15:52.983Z,2.65
2022-08-17T04:20:55.629Z,2.87
2022-08-17T04:26:00.565Z,3.30
2022-08-17T04:31:03.134Z,3.13
2022-08-17T04:36:07.744Z,3.83
2022-08-17T04:41:30.788Z,3.80
2022-08-17T04:46:35.754Z,4.13
2022-08-17T04:51:54.697Z,4.05
2022-08-17T04:56:59.456Z,3.70
2022-08-17T05:02:02.089Z,4.32
2022-08-17T05:07:05.404Z,3.88
2022-08-17T05:12:08.098Z,3.50
2022-08-17T05:17:11.126Z,3.20
2022-08-17T05:22:17.494Z,3.75
2022-08-17T05:27:19.994Z,3.27
2022-08-17T05:32:39.322Z,3.63
2022-08-17T05:37:43.016Z,4.00
2022-08-17T05:42:45.754Z,3.63
2022-08-17T05:47:48.699Z,3.80
2022-08-17T05:53:11.909Z,3.63
2022-08-17T05:58:48.125Z,3.88
2022-08-17T06:03:54.920Z,3.43
2022-08-17T06:09:04.452Z,3.20
2022-08-17T06:14:18.774Z,3.30
2022-08-17T06:19:44.651Z,3.50
2022-08-17T06:24:57.136Z,3.50
2022-08-17T06:30:02.592Z,4.55
2022-08-17T06:35:08.054Z,4.10
2022-08-17T06:40:39.966Z,3.53
2022-08-17T06:45:57.582Z,3.80
2022-08-17T06:51:37.852Z,4.03
2022-08-17T06:56:53.808Z,4.30
2022-08-17T07:01:58.404Z,3.42
2022-08-17T07:07:27.142Z,3.60
2022-08-17T07:12:37.511Z,3.50
2022-08-17T07:17:48.133Z,3.73
2022-08-17T07:23:09.662Z,3.40
2022-08-17T07:28:13.089Z,3.50
2022-08-17T07:33:23.498Z,3.53
2022-08-17T07:38:35.663Z,2.88
2022-08-17T07:43:41.196Z,3.00
2022-08-17T07:48:49.883Z,3.17
2022-08-17T07:54:13.217Z,3.65
2022-08-17T07:59:21.849Z,3.38
2022-08-17T08:04:59.552Z,3.57
2022-08-17T08:10:09.896Z,3.70
2022-08-17T08:15:20.671Z,2.92
2022-08-17T08:20:53.339Z,3.30
2022-08-17T08:26:05.636Z,3.37
2022-08-17T08:31:42.341Z,3.17
2022-08-17T08:37:16.511Z,2.72
2022-08-17T08:42:49.040Z,3.30
2022-08-17T08:48:45.860Z,2.78
2022-08-17T08:53:57.251Z,3.20
2022-08-17T08:59:04.857Z,2.77
2022-08-17T09:04:44.965Z,2.70
2022-08-17T09:10:03.999Z,2.80
2022-08-17T09:15:17.780Z,3.10
2022-08-17T09:20:30.088Z,3.53
2022-08-17T09:25:35.536Z,3.00
2022-08-17T09:30:52.006Z,2.67
2022-08-17T09:35:59.356Z,3.23
2022-08-17T09:41:26.410Z,2.70
2022-08-17T09:46:35.806Z,3.13
2022-08-17T09:51:56.081Z,2.87
2022-08-17T09:57:30.688Z,2.93
2022-08-17T10:03:01.637Z,3.40
2022-08-17T10:08:23.552Z,2.90
2022-08-17T10:13:38.400Z,3.03
2022-08-17T10:18:59.748Z,3.10
2022-08-17T10:24:37.909Z,2.97
2022-08-17T10:29:49.737Z,3.20
2022-08-17T10:34:55.656Z,3.13
2022-08-17T10:40:13.223Z,3.35
2022-08-17T10:45:21.580Z,3.10
2022-08-17T10:51:03.139Z,3.20
2022-08-17T10:56:14.693Z,2.90
2022-08-17T11:01:18.260Z,3.65
2022-08-17T11:06:30.520Z,3.07
2022-08-17T11:12:07.024Z,3.17
2022-08-17T11:17:49.817Z,3.58
2022-08-17T11:23:23.904Z,3.23
2022-08-17T11:28:34.518Z,3.08
2022-08-17T11:33:44.739Z,3.50
2022-08-17T11:38:58.043Z,3.17
2022-08-17T11:44:15.572Z,2.90
2022-08-17T11:50:15.291Z,3.50
2022-08-17T11:55:39.568Z,2.78
2022-08-17T12:00:53.120Z,3.10
2022-08-17T12:06:30.246Z,3.08
2022-08-17T12:11:56.248Z,3.80
2022-08-17T12:17:14.166Z,2.90
2022-08-17T12:22:33.360Z,3.00
2022-08-17T12:28:05.518Z,2.92
2022-08-17T12:33:00.295Z,2.90
2022-08-17T12:38:06.562Z,2.97
2022-08-17T12:43:32.869Z,3.08
2022-08-17T12:48:36.862Z,2.63
2022-08-17T12:53:45.588Z,2.83
2022-08-17T12:58:53.556Z,2.97
2022-08-17T13:04:00.976Z,3.10
2022-08-17T13:09:17.839Z,2.53
2022-08-17T13:14:20.718Z,3.30
2022-08-17T13:19:39.746Z,3.00
2022-08-17T13:24:58.869Z,3.30
2022-08-17T13:30:12.446Z,3.03
2022-08-17T13:35:42.997Z,2.92
2022-08-17T13:40:53.281Z,3.00
2022-08-17T13:46:09.353Z,3.07
2022-08-17T13:51:21.545Z,3.58
2022-08-17T13:56:39.321Z,3.30
2022-08-17T14:01:51.063Z,3.77
2022-08-17T14:07:03.792Z,3.22
2022-08-17T14:12:11.393Z,4.72
2022-08-17T14:17:14.342Z,3.87
2022-08-17T14:22:23.765Z,3.83
2022-08-17T14:27:28.294Z,3.85
2022-08-17T14:32:33.727Z,4.05
2022-08-17T14:37:36.889Z,3.27
2022-08-17T14:42:41.993Z,3.80
2022-08-17T14:47:44.968Z,4.05
2022-08-17T14:52:50.723Z,3.40
2022-08-17T14:57:54.653Z,3.00
2022-08-17T15:02:59.253Z,3.15
2022-08-17T15:08:02.877Z,3.07
2022-08-17T15:13:19.115Z,2.80
2022-08-17T15:18:21.827Z,2.65
2022-08-17T15:23:25.965Z,3.38
2022-08-17T15:28:28.500Z,3.20
2022-08-17T15:33:31.737Z,4.03
2022-08-17T15:38:39.489Z,3.00
2022-08-17T15:43:43.756Z,3.17
2022-08-17T15:48:49.632Z,3.08
2022-08-17T15:53:58.185Z,3.00
2022-08-17T15:59:01.267Z,3.77
2022-08-17T16:04:06.953Z,2.50
2022-08-17T16:09:09.960Z,2.47
2022-08-17T16:14:14.494Z,2.67
2022-08-17T16:19:17.047Z,2.60
2022-08-17T16:24:19.644Z,2.97
2022-08-17T16:29:22.757Z,3.30
2022-08-17T16:34:25.403Z,2.83
2022-08-17T16:39:29.684Z,2.30
2022-08-17T16:44:33.361Z,2.92
2022-08-17T16:49:38.169Z,3.40
2022-08-17T16:54:44.013Z,4.23
2022-08-17T16:59:50.445Z,3.90
2022-08-17T17:05:31.503Z,5.20
2022-08-17T17:10:43.177Z,4.00
2022-08-17T17:15:55.454Z,4.25
2022-08-17T17:20:58.603Z,3.78
2022-08-17T17:26:08.198Z,3.73
2022-08-17T17:31:20.437Z,3.53
2022-08-17T17:36:40.716Z,4.20
2022-08-17T17:41:51.674Z,6.20
2022-08-17T17:46:58.295Z,6.80
2022-08-17T17:52:26.104Z,5.80
2022-08-17T17:58:17.946Z,5.22
2022-08-17T18:03:45.013Z,5.40
2022-08-17T18:09:04.608Z,3.90
2022-08-17T18:14:46.880Z,4.68
2022-08-17T18:19:49.526Z,4.70
2022-08-17T18:24:56.264Z,4.28
2022-08-17T18:30:03.447Z,4.18
2022-08-17T18:35:09.686Z,4.47
2022-08-17T18:40:18.556Z,5.07
2022-08-17T18:45:41.100Z,5.35
2022-08-17T18:50:43.810Z,4.60
2022-08-17T18:55:48.245Z,3.23
2022-08-17T19:00:51.912Z,4.05
2022-08-17T19:05:57.626Z,4.32
2022-08-17T19:11:08.456Z,6.87
2022-08-17T19:16:20.265Z,8.23
2022-08-17T19:21:36.484Z,7.75
2022-08-17T19:27:06.569Z,7.73
2022-08-17T19:32:10.903Z,6.77
2022-08-17T19:37:31.917Z,4.70
2022-08-17T19:42:55.981Z,4.45
2022-08-17T19:48:35.680Z,4.10
2022-08-17T19:54:08.731Z,5.05
2022-08-17T19:59:37.144Z,4.80
2022-08-17T20:04:44.983Z,4.90
2022-08-17T20:09:58.753Z,4.28
2022-08-17T20:15:05.196Z,4.72
2022-08-17T20:20:36.873Z,5.80
2022-08-17T20:26:19.329Z,5.33
2022-08-17T20:31:40.176Z,5.18
2022-08-17T20:37:11.342Z,5.20
2022-08-17T20:42:21.261Z,4.67
2022-08-17T20:47:37.779Z,4.88
2022-08-17T20:52:52.705Z,5.20
2022-08-17T20:57:55.471Z,4.03
2022-08-17T21:03:27.479Z,5.00
2022-08-17T21:08:58.017Z,4.80
2022-08-17T21:14:38.152Z,5.10
2022-08-17T21:20:11.830Z,4.97
2022-08-17T21:25:36.102Z,5.00
2022-08-17T21:30:38.598Z,4.80
2022-08-17T21:36:08.919Z,4.87
2022-08-17T21:41:23.405Z,4.80
2022-08-17T21:46:36.973Z,5.60
2022-08-17T21:51:45.772Z,6.00
2022-08-17T21:56:48.969Z,4.97
2022-08-17T22:02:08.889Z,5.20
2022-08-17T22:07:14.375Z,5.90
2022-08-17T22:12:19.470Z,5.07
2022-08-17T22:17:27.751Z,5.40
2022-08-17T22:23:03.888Z,4.60
2022-08-17T22:28:11.580Z,5.70
2022-08-17T22:33:32.929Z,6.75
2022-08-17T22:38:35.603Z,4.97
2022-08-17T22:43:39.442Z,5.67
2022-08-17T22:48:51.699Z,6.40
2022-08-17T22:54:15.508Z,5.25
2022-08-17T22:59:44.760Z,6.03
2022-08-17T23:04:52.036Z,5.97
2022-08-17T23:09:54.591Z,5.63
2022-08-17T23:15:00.660Z,4.93
2022-08-17T23:20:04.453Z,5.25
2022-08-17T23:25:07.526Z,6.18
2022-08-17T23:30:11.885Z,6.03
2022-08-17T23:35:16.507Z,5.80
2022-08-17T23:40:19.083Z,6.05
2022-08-17T23:45:21.633Z,5.65
2022-08-17T23:50:25.090Z,5.83
2022-08-17T23:55:34.804Z,5.32
